Time;durP1;ratioP1;P1;durP2;ratioP2;P2;SDS_P1;SDS_P2;PMS_P1;PMS_P2;Temp;Humidity;BMP_temperature;BMP_pressure;BME280_temperature;BME280_humidity;BME280_pressure;Samples;Min_cycle;Max_cycle;Signal;HPM_P1;HPM_P2
2021/07/11 00:00:44;;;;;;;12.48;11.27;;;;;;;;;;5016780;28;20081;-73
2021/07/11 00:03:10;;;;;;;10.82;9.82;;;;;;;;;;5036708;28;20060;-73
2021/07/11 00:05:37;;;;;;;12.27;10.00;;;;;;;;;;5032739;28;20048;-73
2021/07/11 00:08:03;;;;;;;11.40;10.18;;;;;;;;;;5034792;28;20036;-73
2021/07/11 00:10:29;;;;;;;11.98;10.07;;;;;;;;;;5034190;28;20090;-73
2021/07/11 00:12:55;;;;;;;12.25;11.02;;;;;;;;;;5037652;28;20037;-73
2021/07/11 00:15:23;;;;;;;12.25;10.63;;;;;;;;;;5029719;28;20025;-72
2021/07/11 00:17:53;;;;;;;12.15;10.95;;;;;;;;;;5034825;28;20510;-72
2021/07/11 00:20:21;;;;;;;13.52;11.40;;;;;;;;;;5035314;28;20423;-73
2021/07/11 00:22:47;;;;;;;14.18;10.90;;;;;;;;;;5035072;28;20033;-73
2021/07/11 00:25:16;;;;;;;12.45;10.60;;;;;;;;;;5031322;28;20036;-72
2021/07/11 00:27:42;;;;;;;13.02;11.18;;;;;;;;;;5033646;28;20029;-72
2021/07/11 00:30:09;;;;;;;11.93;10.82;;;;;;;;;;5029712;28;20082;-72
2021/07/11 00:32:35;;;;;;;13.07;11.38;;;;;;;;;;5038649;28;20082;-72
2021/07/11 00:35:01;;;;;;;12.63;11.43;;;;;;;;;;5033397;28;20036;-72
2021/07/11 00:37:27;;;;;;;13.07;10.65;;;;;;;;;;5022065;28;20049;-73
2021/07/11 00:39:53;;;;;;;12.60;11.30;;;;;;;;;;5021952;28;20478;-72
2021/07/11 00:42:20;;;;;;;12.07;10.63;;;;;;;;;;5016773;28;20071;-72
2021/07/11 00:44:46;;;;;;;11.93;10.50;;;;;;;;;;5019208;28;20045;-72
2021/07/11 00:47:13;;;;;;;13.48;11.50;;;;;;;;;;5033390;28;20037;-73
2021/07/11 00:49:42;;;;;;;11.80;10.48;;;;;;;;;;5036251;28;20034;-73
2021/07/11 00:52:09;;;;;;;15.38;11.80;;;;;;;;;;5020193;28;20053;-73
2021/07/11 00:54:35;;;;;;;11.82;10.60;;;;;;;;;;5044042;28;20493;-73
2021/07/11 00:57:02;;;;;;;12.00;10.80;;;;;;;;;;5029126;28;20033;-72
2021/07/11 00:59:28;;;;;;;12.48;11.18;;;;;;;;;;5039252;28;20112;-72
2021/07/11 01:02:08;;;;;;;12.40;11.10;;;;;;;;;;5031724;28;20056;-72
2021/07/11 01:04:47;;;;;;;11.65;10.38;;;;;;;;;;5038425;28;20044;-73
2021/07/11 01:07:14;;;;;;;11.48;10.07;;;;;;;;;;5036031;28;20045;-73
2021/07/11 01:09:46;;;;;;;11.05;9.70;;;;;;;;;;5040404;28;20044;-73
2021/07/11 01:12:32;;;;;;;13.55;10.48;;;;;;;;;;5029573;28;20115;-72
2021/07/11 01:15:00;;;;;;;13.57;10.75;;;;;;;;;;5018571;28;20049;-72
2021/07/11 01:17:28;;;;;;;11.23;10.05;;;;;;;;;;5026354;28;20061;-72
2021/07/11 01:20:10;;;;;;;11.38;10.18;;;;;;;;;;5040612;28;20086;-72
2021/07/11 01:22:39;;;;;;;11.80;10.60;;;;;;;;;;5024644;28;20056;-72
2021/07/11 01:25:07;;;;;;;13.63;10.70;;;;;;;;;;5042956;28;20429;-73
2021/07/11 01:27:34;;;;;;;11.10;10.10;;;;;;;;;;5015583;28;20041;-73
2021/07/11 01:30:03;;;;;;;11.38;10.23;;;;;;;;;;5043145;28;20374;-73
2021/07/11 01:32:30;;;;;;;11.40;10.27;;;;;;;;;;5043048;28;20119;-72
2021/07/11 01:35:00;;;;;;;11.40;10.07;;;;;;;;;;5036012;28;20033;-72
2021/07/11 01:37:27;;;;;;;10.88;9.80;;;;;;;;;;5019945;28;20040;-72
2021/07/11 01:39:53;;;;;;;11.52;9.52;;;;;;;;;;5039066;28;20098;-73
2021/07/11 01:42:20;;;;;;;11.20;10.20;;;;;;;;;;5023838;28;20269;-73
2021/07/11 01:44:46;;;;;;;10.48;9.48;;;;;;;;;;5041465;28;20172;-73
2021/07/11 01:47:12;;;;;;;10.68;9.57;;;;;;;;;;5041571;28;20040;-73
2021/07/11 01:49:40;;;;;;;10.45;9.40;;;;;;;;;;5033670;28;20038;-73
2021/07/11 01:52:06;;;;;;;11.80;10.57;;;;;;;;;;5038991;28;20489;-73
2021/07/11 01:54:32;;;;;;;12.75;10.07;;;;;;;;;;5018440;28;20041;-73
2021/07/11 01:56:59;;;;;;;11.50;10.30;;;;;;;;;;5016718;28;20085;-72
2021/07/11 01:59:25;;;;;;;10.82;9.80;;;;;;;;;;5017980;28;20057;-72
2021/07/11 02:01:51;;;;;;;12.45;10.00;;;;;;;;;;5041166;28;20046;-72
2021/07/11 02:04:17;;;;;;;11.30;10.20;;;;;;;;;;5033600;28;20124;-73
2021/07/11 02:06:44;;;;;;;11.02;9.82;;;;;;;;;;5034688;28;20045;-73
2021/07/11 02:09:10;;;;;;;13.05;10.02;;;;;;;;;;5019780;28;20053;-73
2021/07/11 02:11:38;;;;;;;12.05;10.85;;;;;;;;;;5037934;28;20048;-73
2021/07/11 02:14:11;;;;;;;22.80;20.63;;;;;;;;;;5011516;28;20046;-73
2021/07/11 02:16:55;;;;;;;17.42;15.57;;;;;;;;;;5030758;28;20356;-73
2021/07/11 02:19:21;;;;;;;16.13;14.63;;;;;;;;;;5033853;28;20086;-73
2021/07/11 02:21:48;;;;;;;12.85;11.70;;;;;;;;;;5041155;28;20049;-73
2021/07/11 02:24:14;;;;;;;11.80;10.63;;;;;;;;;;5023760;28;20477;-73
2021/07/11 02:26:41;;;;;;;11.55;10.43;;;;;;;;;;5034925;28;20099;-73
2021/07/11 02:29:08;;;;;;;10.32;9.18;;;;;;;;;;5040169;28;20441;-73
2021/07/11 02:31:42;;;;;;;11.35;10.25;;;;;;;;;;5037373;28;20033;-73
2021/07/11 02:34:12;;;;;;;11.43;8.97;;;;;;;;;;5041942;28;20041;-73
2021/07/11 02:36:46;;;;;;;10.80;9.10;;;;;;;;;;5032295;28;20057;-73
2021/07/11 02:39:14;;;;;;;10.13;8.85;;;;;;;;;;5039508;28;20057;-73
2021/07/11 02:41:47;;;;;;;10.55;8.70;;;;;;;;;;5032423;28;20048;-73
2021/07/11 02:44:14;;;;;;;10.57;9.35;;;;;;;;;;5043305;28;20048;-73
2021/07/11 02:46:42;;;;;;;10.32;9.23;;;;;;;;;;5034514;28;20041;-73
2021/07/11 02:49:11;;;;;;;10.43;9.43;;;;;;;;;;5046770;28;20174;-73
2021/07/11 02:51:42;;;;;;;11.65;9.60;;;;;;;;;;5032714;28;20040;-73
2021/07/11 02:54:08;;;;;;;11.05;9.75;;;;;;;;;;5036806;28;20136;-73
2021/07/11 02:56:38;;;;;;;11.15;9.73;;;;;;;;;;5031182;28;20040;-73
2021/07/11 02:59:05;;;;;;;10.82;9.63;;;;;;;;;;5039256;28;20037;-73
2021/07/11 03:01:31;;;;;;;11.15;10.05;;;;;;;;;;5027524;28;20060;-73
2021/07/11 03:03:58;;;;;;;12.82;10.07;;;;;;;;;;5038134;28;20420;-73
2021/07/11 03:06:24;;;;;;;11.75;10.65;;;;;;;;;;5029862;28;20362;-73
2021/07/11 03:08:50;;;;;;;11.20;9.93;;;;;;;;;;5038015;28;20044;-73
2021/07/11 03:11:17;;;;;;;11.35;10.13;;;;;;;;;;5030500;28;20424;-73
2021/07/11 03:13:44;;;;;;;10.07;9.13;;;;;;;;;;5028174;28;20052;-73
2021/07/11 03:16:10;;;;;;;10.80;9.65;;;;;;;;;;5043353;28;20033;-73
2021/07/11 03:18:37;;;;;;;10.90;9.77;;;;;;;;;;5019233;28;20132;-73
2021/07/11 03:21:05;;;;;;;14.50;10.77;;;;;;;;;;5019366;28;20033;-73
2021/07/11 03:23:32;;;;;;;10.88;9.77;;;;;;;;;;5030797;28;20343;-73
2021/07/11 03:25:58;;;;;;;13.68;10.77;;;;;;;;;;5034877;28;20426;-73
2021/07/11 03:28:24;;;;;;;12.25;10.57;;;;;;;;;;5037041;28;20033;-73
2021/07/11 03:30:53;;;;;;;12.45;10.57;;;;;;;;;;5039274;28;20120;-73
2021/07/11 03:33:20;;;;;;;12.38;11.13;;;;;;;;;;5029585;28;20055;-73
2021/07/11 03:35:49;;;;;;;13.63;11.70;;;;;;;;;;5037891;28;20060;-73
2021/07/11 03:38:18;;;;;;;13.10;11.80;;;;;;;;;;5034063;28;20096;-73
2021/07/11 03:40:45;;;;;;;12.85;11.05;;;;;;;;;;5023045;28;20045;-73
2021/07/11 03:43:12;;;;;;;13.90;12.35;;;;;;;;;;5036343;28;20045;-73
2021/07/11 03:45:43;;;;;;;13.50;11.52;;;;;;;;;;5037643;28;20044;-73
2021/07/11 03:48:14;;;;;;;13.15;11.63;;;;;;;;;;5032519;28;20041;-73
2021/07/11 03:50:42;;;;;;;13.30;11.85;;;;;;;;;;5042392;28;20158;-73
2021/07/11 03:53:09;;;;;;;13.93;12.23;;;;;;;;;;5019836;28;20053;-73
2021/07/11 03:55:36;;;;;;;13.00;11.70;;;;;;;;;;5037378;28;20393;-73
2021/07/11 03:58:03;;;;;;;13.50;12.20;;;;;;;;;;5035794;28;20529;-74
2021/07/11 04:00:29;;;;;;;13.75;12.35;;;;;;;;;;5022555;28;20040;-74
2021/07/11 04:02:56;;;;;;;14.50;13.00;;;;;;;;;;5022568;28;20430;-73
2021/07/11 04:05:24;;;;;;;15.65;13.38;;;;;;;;;;5029235;28;20486;-73
2021/07/11 04:07:51;;;;;;;15.90;13.27;;;;;;;;;;5036189;28;20514;-73
2021/07/11 04:10:17;;;;;;;14.45;12.77;;;;;;;;;;5030971;28;20072;-73
2021/07/11 04:12:45;;;;;;;14.77;13.30;;;;;;;;;;5035592;28;20044;-73
2021/07/11 04:15:11;;;;;;;15.02;13.43;;;;;;;;;;5029839;28;20025;-73
2021/07/11 04:17:38;;;;;;;15.57;14.13;;;;;;;;;;5034887;28;20034;-73
2021/07/11 04:20:05;;;;;;;15.18;13.60;;;;;;;;;;5031379;28;20556;-73
2021/07/11 04:22:32;;;;;;;17.25;14.07;;;;;;;;;;5033527;28;20120;-73
2021/07/11 04:24:59;;;;;;;14.02;12.52;;;;;;;;;;5014909;28;20065;-73
2021/07/11 04:27:26;;;;;;;13.65;12.27;;;;;;;;;;5036168;28;20060;-73
2021/07/11 04:29:52;;;;;;;14.43;12.93;;;;;;;;;;5033640;28;20037;-74
2021/07/11 04:32:19;;;;;;;17.10;13.35;;;;;;;;;;5037345;28;20049;-72
2021/07/11 04:34:45;;;;;;;14.20;12.70;;;;;;;;;;5015247;28;20042;-72
2021/07/11 04:37:11;;;;;;;15.07;13.68;;;;;;;;;;5034810;28;20041;-72
2021/07/11 04:39:38;;;;;;;14.75;13.25;;;;;;;;;;5032788;28;20041;-72
2021/07/11 04:42:04;;;;;;;14.68;12.88;;;;;;;;;;5021966;28;20456;-73
2021/07/11 04:44:32;;;;;;;14.65;13.25;;;;;;;;;;5042115;28;20033;-73
2021/07/11 04:46:58;;;;;;;16.77;13.13;;;;;;;;;;5040026;28;20033;-74
2021/07/11 04:49:30;;;;;;;14.35;12.93;;;;;;;;;;5023194;28;20413;-74
2021/07/11 04:51:56;;;;;;;15.35;12.95;;;;;;;;;;5035895;28;20037;-74
2021/07/11 04:54:23;;;;;;;17.00;14.00;;;;;;;;;;5021990;28;20418;-74
2021/07/11 04:56:49;;;;;;;14.50;12.15;;;;;;;;;;5027219;28;20497;-74
2021/07/11 04:59:15;;;;;;;14.23;11.90;;;;;;;;;;5042063;28;20029;-74
2021/07/11 05:01:41;;;;;;;14.13;12.65;;;;;;;;;;5027658;28;20083;-73
2021/07/11 05:04:09;;;;;;;14.38;12.88;;;;;;;;;;5042632;28;20120;-73
2021/07/11 05:06:35;;;;;;;13.70;12.20;;;;;;;;;;5024203;28;20068;-73
2021/07/11 05:09:03;;;;;;;14.02;12.30;;;;;;;;;;5027465;28;20061;-73
2021/07/11 05:11:29;;;;;;;13.63;12.23;;;;;;;;;;5011864;28;20478;-74
2021/07/11 05:13:56;;;;;;;14.20;12.38;;;;;;;;;;5036739;28;20033;-74
2021/07/11 05:16:22;;;;;;;14.18;12.68;;;;;;;;;;5028009;28;20033;-74
2021/07/11 05:18:48;;;;;;;13.70;12.30;;;;;;;;;;5020328;28;20552;-74
2021/07/11 05:21:15;;;;;;;13.95;12.55;;;;;;;;;;5032780;28;20509;-73
2021/07/11 05:23:41;;;;;;;12.88;11.63;;;;;;;;;;5035379;28;20460;-73
2021/07/11 05:26:07;;;;;;;13.20;11.65;;;;;;;;;;5039289;28;20136;-72
2021/07/11 05:28:33;;;;;;;13.63;11.10;;;;;;;;;;5029476;28;20034;-73
2021/07/11 05:30:59;;;;;;;13.63;12.05;;;;;;;;;;5030954;28;20074;-73
2021/07/11 05:33:25;;;;;;;13.75;11.32;;;;;;;;;;5030890;28;20502;-73
2021/07/11 05:35:52;;;;;;;13.60;12.00;;;;;;;;;;5037333;28;20472;-73
2021/07/11 05:38:18;;;;;;;13.60;11.98;;;;;;;;;;5032317;28;20048;-73
2021/07/11 05:40:44;;;;;;;14.85;12.52;;;;;;;;;;5036853;28;20033;-73
2021/07/11 05:43:10;;;;;;;14.15;12.65;;;;;;;;;;5032153;28;20113;-74
2021/07/11 05:45:36;;;;;;;14.27;12.55;;;;;;;;;;5037695;28;20047;-74
2021/07/11 05:48:03;;;;;;;13.70;12.27;;;;;;;;;;5034753;28;20033;-74
2021/07/11 05:50:29;;;;;;;13.32;11.93;;;;;;;;;;5038918;28;20116;-74
2021/07/11 05:52:55;;;;;;;13.27;11.80;;;;;;;;;;5033230;28;20035;-74
2021/07/11 05:55:22;;;;;;;13.07;11.63;;;;;;;;;;5039893;28;20481;-74
2021/07/11 05:57:48;;;;;;;12.68;11.52;;;;;;;;;;5023811;28;20121;-74
2021/07/11 06:00:14;;;;;;;11.80;10.63;;;;;;;;;;5020149;28;20056;-74
2021/07/11 06:02:41;;;;;;;13.65;12.15;;;;;;;;;;5031823;28;20050;-73
2021/07/11 06:05:07;;;;;;;12.90;11.68;;;;;;;;;;5037933;28;20049;-73
2021/07/11 06:07:33;;;;;;;13.30;11.30;;;;;;;;;;5043132;28;20123;-73
2021/07/11 06:09:59;;;;;;;11.63;10.52;;;;;;;;;;5035300;28;20064;-73
2021/07/11 06:12:26;;;;;;;12.95;11.60;;;;;;;;;;5039307;28;20025;-73
2021/07/11 06:14:54;;;;;;;12.05;10.88;;;;;;;;;;5027192;28;20528;-73
2021/07/11 06:17:21;;;;;;;12.73;11.52;;;;;;;;;;5034697;28;20567;-73
2021/07/11 06:19:47;;;;;;;13.25;11.85;;;;;;;;;;5012694;28;20049;-74
2021/07/11 06:22:13;;;;;;;14.18;12.02;;;;;;;;;;5036217;28;20096;-74
2021/07/11 06:24:39;;;;;;;13.30;11.68;;;;;;;;;;5009472;28;20464;-74
2021/07/11 06:27:05;;;;;;;13.60;12.40;;;;;;;;;;5036537;28;20095;-73
2021/07/11 06:29:31;;;;;;;12.93;11.68;;;;;;;;;;5031391;28;20033;-74
2021/07/11 06:31:57;;;;;;;15.20;12.57;;;;;;;;;;5039724;28;20415;-73
2021/07/11 06:34:23;;;;;;;13.73;12.25;;;;;;;;;;5034335;28;20041;-74
2021/07/11 06:36:50;;;;;;;14.15;12.60;;;;;;;;;;5037126;28;20033;-74
2021/07/11 06:39:16;;;;;;;13.13;11.93;;;;;;;;;;5040002;28;20064;-72
2021/07/11 06:41:42;;;;;;;13.25;11.95;;;;;;;;;;5019089;28;20049;-73
2021/07/11 06:44:08;;;;;;;13.40;12.05;;;;;;;;;;5042884;28;20041;-73
2021/07/11 06:46:34;;;;;;;14.25;12.32;;;;;;;;;;5031598;28;20049;-73
2021/07/11 06:49:00;;;;;;;15.52;13.25;;;;;;;;;;5037913;28;20382;-73
2021/07/11 06:51:26;;;;;;;13.38;12.05;;;;;;;;;;5011933;28;20044;-73
2021/07/11 06:53:52;;;;;;;13.65;12.27;;;;;;;;;;5039184;28;20539;-73
2021/07/11 06:56:19;;;;;;;14.27;12.13;;;;;;;;;;5027888;28;20052;-75
2021/07/11 06:58:45;;;;;;;12.95;11.75;;;;;;;;;;5035270;28;20041;-74
2021/07/11 07:01:11;;;;;;;14.00;11.27;;;;;;;;;;5036007;28;20033;-74
2021/07/11 07:03:37;;;;;;;12.32;11.13;;;;;;;;;;5037817;28;20076;-74
2021/07/11 07:06:03;;;;;;;13.32;11.82;;;;;;;;;;5033283;28;20095;-74
2021/07/11 07:08:29;;;;;;;13.00;11.70;;;;;;;;;;5041876;28;20037;-74
2021/07/11 07:10:55;;;;;;;13.15;11.82;;;;;;;;;;5034627;28;20036;-74
2021/07/11 07:13:22;;;;;;;13.48;11.15;;;;;;;;;;5041028;28;20087;-74
2021/07/11 07:15:48;;;;;;;13.10;11.70;;;;;;;;;;5036172;28;20040;-73
2021/07/11 07:18:14;;;;;;;12.73;11.38;;;;;;;;;;5042393;28;20038;-73
2021/07/11 07:20:40;;;;;;;12.05;10.95;;;;;;;;;;5039111;28;20033;-73
2021/07/11 07:23:07;;;;;;;12.55;11.25;;;;;;;;;;5035942;28;20902;-74
2021/07/11 07:25:33;;;;;;;12.85;11.65;;;;;;;;;;5024017;28;20038;-74
2021/07/11 07:27:59;;;;;;;12.18;11.07;;;;;;;;;;5034690;28;20436;-74
2021/07/11 07:30:25;;;;;;;13.27;10.88;;;;;;;;;;5019615;28;20120;-74
2021/07/11 07:32:51;;;;;;;11.70;10.60;;;;;;;;;;5010457;28;20132;-74
2021/07/11 07:35:18;;;;;;;11.25;9.98;;;;;;;;;;5041886;28;20029;-74
2021/07/11 07:37:46;;;;;;;12.07;10.98;;;;;;;;;;5038683;28;20037;-74
2021/07/11 07:40:13;;;;;;;13.20;10.70;;;;;;;;;;5024544;28;20109;-74
2021/07/11 07:42:39;;;;;;;11.50;10.02;;;;;;;;;;5029870;28;20404;-74
2021/07/11 07:45:05;;;;;;;11.57;9.93;;;;;;;;;;5040274;28;20036;-74
2021/07/11 07:47:31;;;;;;;12.10;10.80;;;;;;;;;;5032997;28;20309;-74
2021/07/11 07:49:59;;;;;;;10.85;9.75;;;;;;;;;;5019811;28;20057;-74
2021/07/11 07:52:25;;;;;;;12.32;11.13;;;;;;;;;;5034421;28;20029;-75
2021/07/11 07:54:51;;;;;;;12.10;10.90;;;;;;;;;;5046184;28;20041;-75
2021/07/11 07:57:17;;;;;;;11.23;10.02;;;;;;;;;;5025644;28;20041;-75
2021/07/11 07:59:44;;;;;;;13.93;11.38;;;;;;;;;;5036285;28;20051;-76
2021/07/11 08:02:10;;;;;;;11.35;10.25;;;;;;;;;;5037045;28;20083;-76
2021/07/11 08:04:36;;;;;;;10.43;9.43;;;;;;;;;;5034197;28;20094;-75
2021/07/11 08:07:02;;;;;;;13.55;10.43;;;;;;;;;;5035273;28;20120;-76
2021/07/11 08:09:28;;;;;;;10.60;9.57;;;;;;;;;;5030147;28;20112;-76
2021/07/11 08:11:55;;;;;;;12.00;10.85;;;;;;;;;;5038793;28;20037;-75
2021/07/11 08:14:21;;;;;;;11.65;10.43;;;;;;;;;;5020044;28;20048;-75
2021/07/11 08:16:47;;;;;;;11.32;10.05;;;;;;;;;;5041827;28;20041;-75
2021/07/11 08:19:13;;;;;;;10.52;9.63;;;;;;;;;;5032102;28;20047;-75
2021/07/11 08:21:40;;;;;;;11.18;10.18;;;;;;;;;;5038384;28;20055;-75
2021/07/11 08:24:06;;;;;;;11.48;10.38;;;;;;;;;;5029150;28;20286;-75
2021/07/11 08:26:32;;;;;;;11.07;9.77;;;;;;;;;;5043927;28;20041;-75
2021/07/11 08:28:59;;;;;;;11.88;10.82;;;;;;;;;;5035445;28;20409;-75
2021/07/11 08:31:26;;;;;;;10.18;9.27;;;;;;;;;;5034001;28;20033;-75
2021/07/11 08:33:52;;;;;;;10.68;9.60;;;;;;;;;;5037162;28;20029;-76
2021/07/11 08:36:18;;;;;;;10.05;9.10;;;;;;;;;;5036259;28;20393;-76
2021/07/11 08:38:44;;;;;;;9.75;8.95;;;;;;;;;;5032901;28;20504;-75
2021/07/11 08:41:12;;;;;;;9.50;8.70;;;;;;;;;;5036545;28;20447;-75
2021/07/11 08:43:39;;;;;;;10.07;9.23;;;;;;;;;;5036260;28;20037;-75
2021/07/11 08:46:05;;;;;;;9.77;8.88;;;;;;;;;;5031521;28;20033;-76
2021/07/11 08:48:31;;;;;;;8.85;8.00;;;;;;;;;;5017980;28;20128;-68
2021/07/11 08:51:00;;;;;;;9.93;9.07;;;;;;;;;;5027617;28;20041;-68
2021/07/11 08:53:26;;;;;;;9.65;8.65;;;;;;;;;;5035988;28;20049;-68
2021/07/11 08:55:52;;;;;;;10.07;9.18;;;;;;;;;;5028218;28;20049;-68
2021/07/11 08:58:18;;;;;;;10.13;9.23;;;;;;;;;;5034533;28;20048;-68
2021/07/11 09:00:44;;;;;;;9.23;8.32;;;;;;;;;;5029468;28;20447;-68
2021/07/11 09:03:13;;;;;;;8.90;8.00;;;;;;;;;;5038632;28;20057;-68
2021/07/11 09:05:40;;;;;;;8.40;7.60;;;;;;;;;;5038175;28;20049;-68
2021/07/11 09:08:08;;;;;;;9.43;8.40;;;;;;;;;;5034683;28;20060;-68
2021/07/11 09:10:37;;;;;;;8.25;7.43;;;;;;;;;;5028048;28;20409;-68
2021/07/11 09:13:08;;;;;;;8.63;7.82;;;;;;;;;;5032196;28;20029;-68
2021/07/11 09:15:35;;;;;;;9.13;8.32;;;;;;;;;;5025895;28;20741;-68
2021/07/11 09:18:02;;;;;;;9.52;8.77;;;;;;;;;;5038300;28;20045;-68
2021/07/11 09:20:29;;;;;;;8.65;7.70;;;;;;;;;;5032639;28;20042;-68
2021/07/11 09:22:59;;;;;;;8.50;7.70;;;;;;;;;;5035580;28;20049;-67
2021/07/11 09:25:26;;;;;;;9.07;8.20;;;;;;;;;;5037741;28;20041;-67
2021/07/11 09:27:52;;;;;;;9.82;8.93;;;;;;;;;;5029494;28;20033;-68
2021/07/11 09:30:18;;;;;;;9.88;8.95;;;;;;;;;;5036299;28;20038;-67
2021/07/11 09:32:44;;;;;;;9.18;8.38;;;;;;;;;;5020434;28;20116;-68
2021/07/11 09:35:14;;;;;;;9.45;8.52;;;;;;;;;;5037988;28;20045;-67
2021/07/11 09:37:42;;;;;;;8.60;7.70;;;;;;;;;;5029756;28;20128;-67
2021/07/11 09:40:09;;;;;;;8.98;8.18;;;;;;;;;;5037785;28;20144;-67
2021/07/11 09:42:36;;;;;;;8.90;8.00;;;;;;;;;;5027895;28;20045;-67
2021/07/11 09:45:07;;;;;;;9.90;8.90;;;;;;;;;;5035175;28;20056;-67
2021/07/11 09:47:33;;;;;;;9.95;9.02;;;;;;;;;;5029195;28;20508;-67
2021/07/11 09:50:06;;;;;;;9.52;8.63;;;;;;;;;;5037475;28;20367;-67
2021/07/11 09:52:32;;;;;;;9.63;8.65;;;;;;;;;;5034443;28;20034;-67
2021/07/11 09:55:19;;;;;;;8.70;7.82;;;;;;;;;;5034978;28;20410;-67
2021/07/11 09:57:59;;;;;;;9.88;8.82;;;;;;;;;;5027969;28;20045;-67
2021/07/11 10:00:29;;;;;;;10.05;9.15;;;;;;;;;;5033371;28;20049;-66
2021/07/11 10:03:23;;;;;;;9.68;8.88;;;;;;;;;;5036446;28;20356;-66
2021/07/11 10:05:49;;;;;;;10.70;9.70;;;;;;;;;;5030984;28;20057;-66
2021/07/11 10:08:15;;;;;;;9.85;8.82;;;;;;;;;;5033614;28;20052;-67
2021/07/11 10:10:42;;;;;;;9.60;8.70;;;;;;;;;;5041967;28;20037;-67
2021/07/11 10:13:09;;;;;;;10.40;9.02;;;;;;;;;;5027364;28;20034;-67
2021/07/11 10:15:36;;;;;;;9.57;8.50;;;;;;;;;;5038610;28;20037;-67
2021/07/11 10:18:13;;;;;;;9.30;8.18;;;;;;;;;;5039505;28;20048;-67
2021/07/11 10:20:42;;;;;;;9.18;8.38;;;;;;;;;;5038051;28;20279;-67
2021/07/11 10:23:09;;;;;;;11.07;9.20;;;;;;;;;;5037649;28;20555;-67
2021/07/11 10:25:36;;;;;;;9.73;8.73;;;;;;;;;;5036819;28;20545;-67
2021/07/11 10:28:06;;;;;;;9.95;7.72;;;;;;;;;;5038394;28;20103;-67
2021/07/11 10:30:34;;;;;;;8.52;7.85;;;;;;;;;;5038972;28;20039;-67
2021/07/11 10:33:13;;;;;;;9.55;8.65;;;;;;;;;;5033349;28;20041;-67
2021/07/11 10:35:49;;;;;;;8.82;8.00;;;;;;;;;;5042784;28;20060;-67
2021/07/11 10:38:25;;;;;;;8.23;7.47;;;;;;;;;;5034142;28;20053;-67
2021/07/11 10:40:52;;;;;;;9.50;8.60;;;;;;;;;;5021408;28;20050;-67
2021/07/11 10:43:18;;;;;;;10.15;8.02;;;;;;;;;;5035003;28;20041;-67
2021/07/11 10:45:45;;;;;;;9.13;8.20;;;;;;;;;;5033536;28;20045;-67
2021/07/11 10:48:11;;;;;;;7.88;7.07;;;;;;;;;;5034373;28;20048;-68
2021/07/11 10:50:41;;;;;;;9.05;8.20;;;;;;;;;;5037771;28;20033;-67
2021/07/11 10:53:16;;;;;;;8.80;8.10;;;;;;;;;;5038394;28;20083;-67
2021/07/11 10:55:43;;;;;;;9.10;8.40;;;;;;;;;;5034248;28;20490;-68
2021/07/11 10:58:10;;;;;;;11.73;8.60;;;;;;;;;;5038677;28;20042;-68
2021/07/11 11:00:36;;;;;;;11.25;10.25;;;;;;;;;;5031683;28;20044;-67
2021/07/11 11:03:14;;;;;;;9.40;8.35;;;;;;;;;;5046279;28;20067;-67
2021/07/11 11:05:43;;;;;;;10.35;9.35;;;;;;;;;;5030903;28;20041;-67
2021/07/11 11:08:10;;;;;;;9.85;8.95;;;;;;;;;;5032316;28;20124;-67
2021/07/11 11:10:38;;;;;;;9.80;8.60;;;;;;;;;;5034161;28;20041;-67
2021/07/11 11:13:12;;;;;;;9.45;8.55;;;;;;;;;;5034470;28;20374;-67
2021/07/11 11:15:41;;;;;;;9.13;8.18;;;;;;;;;;5027742;28;20091;-67
2021/07/11 11:18:11;;;;;;;9.13;8.27;;;;;;;;;;5040409;28;20045;-68
2021/07/11 11:20:38;;;;;;;10.13;9.23;;;;;;;;;;5030727;28;20394;-68
2021/07/11 11:23:07;;;;;;;10.20;9.23;;;;;;;;;;5038571;28;20045;-68
2021/07/11 11:25:33;;;;;;;9.55;8.65;;;;;;;;;;5032345;28;20393;-68
2021/07/11 11:27:59;;;;;;;9.60;8.57;;;;;;;;;;5037108;28;20033;-68
2021/07/11 11:30:25;;;;;;;10.45;9.40;;;;;;;;;;5032576;28;20554;-68
2021/07/11 11:32:53;;;;;;;9.98;8.98;;;;;;;;;;5035170;28;20053;-68
2021/07/11 11:35:21;;;;;;;9.70;8.60;;;;;;;;;;5033977;28;20065;-67
2021/07/11 11:37:47;;;;;;;10.52;9.05;;;;;;;;;;5029819;28;20565;-69
2021/07/11 11:40:14;;;;;;;11.00;9.77;;;;;;;;;;5039645;28;20460;-68
2021/07/11 11:42:44;;;;;;;10.38;9.40;;;;;;;;;;5034727;28;20049;-68
2021/07/11 11:45:10;;;;;;;9.80;8.90;;;;;;;;;;5038747;28;20049;-69
2021/07/11 11:47:37;;;;;;;10.15;9.13;;;;;;;;;;5032175;28;20069;-69
2021/07/11 11:50:17;;;;;;;12.60;8.68;;;;;;;;;;5035560;28;20049;-67
2021/07/11 11:52:45;;;;;;;10.57;9.50;;;;;;;;;;5031755;28;20494;-68
2021/07/11 11:55:11;;;;;;;10.68;9.68;;;;;;;;;;5033604;28;20115;-68
2021/07/11 11:57:39;;;;;;;10.25;9.35;;;;;;;;;;5029498;28;20034;-69
2021/07/11 12:00:23;;;;;;;12.10;10.98;;;;;;;;;;5036634;28;20120;-68
2021/07/11 12:02:49;;;;;;;;;;;;;;;;;;5027559;28;20079;-69
2021/07/11 12:05:15;;;;;;;11.48;10.38;;;;;;;;;;5041061;28;19978;-69
2021/07/11 12:07:42;;;;;;;11.38;10.23;;;;;;;;;;5027360;28;20045;-69
2021/07/11 12:10:09;;;;;;;11.82;10.63;;;;;;;;;;5040907;28;20140;-69
2021/07/11 12:12:35;;;;;;;11.27;9.88;;;;;;;;;;5032514;28;20045;-68
2021/07/11 12:15:02;;;;;;;12.15;9.73;;;;;;;;;;5041039;28;20056;-69
2021/07/11 12:17:34;;;;;;;10.10;9.20;;;;;;;;;;5031409;28;20037;-69
2021/07/11 12:20:01;;;;;;;10.02;9.15;;;;;;;;;;5033961;28;20040;-68
2021/07/11 12:22:31;;;;;;;10.15;9.23;;;;;;;;;;5039761;28;20472;-69
2021/07/11 12:25:29;;;;;;;10.73;9.60;;;;;;;;;;5021956;28;20068;-69
2021/07/11 12:28:02;;;;;;;9.77;8.88;;;;;;;;;;5023405;28;20044;-69
2021/07/11 12:30:37;;;;;;;9.87;8.97;;;;;;;;;;5032652;28;20536;-69
2021/07/11 12:33:04;;;;;;;11.00;9.95;;;;;;;;;;5030824;28;20311;-69
2021/07/11 12:35:30;;;;;;;9.93;8.98;;;;;;;;;;5044573;28;20080;-69
2021/07/11 12:38:01;;;;;;;10.25;9.25;;;;;;;;;;5031992;28;20069;-69
2021/07/11 12:40:28;;;;;;;10.63;9.68;;;;;;;;;;5032021;28;20034;-68
2021/07/11 12:43:08;;;;;;;9.70;8.80;;;;;;;;;;5034565;28;20463;-68
2021/07/11 12:45:36;;;;;;;9.30;8.43;;;;;;;;;;5032757;28;20413;-68
2021/07/11 12:48:02;;;;;;;8.75;7.85;;;;;;;;;;5035372;28;20036;-69
2021/07/11 12:50:39;;;;;;;9.77;7.80;;;;;;;;;;5029981;28;20037;-68
2021/07/11 12:53:09;;;;;;;8.93;8.10;;;;;;;;;;5042230;28;20037;-68
2021/07/11 12:55:43;;;;;;;9.10;8.30;;;;;;;;;;5029680;28;20037;-68
2021/07/11 12:58:17;;;;;;;10.35;9.35;;;;;;;;;;5042393;28;20041;-68
2021/07/11 13:00:47;;;;;;;;;;;;;;;;;;5033009;28;20036;-73
2021/07/11 13:03:28;;;;;;;9.77;8.70;;;;;;;;;;5013857;28;20386;-73
2021/07/11 13:06:01;;;;;;;8.57;7.78;;;;;;;;;;5013717;28;20054;-73
2021/07/11 13:08:31;;;;;;;9.23;8.43;;;;;;;;;;5015682;28;20034;-72
2021/07/11 13:11:02;;;;;;;9.00;8.20;;;;;;;;;;5009691;28;20037;-73
2021/07/11 13:13:39;;;;;;;10.60;9.38;;;;;;;;;;5014952;28;20059;-73
2021/07/11 13:16:18;;;;;;;9.02;8.23;;;;;;;;;;5003244;28;20290;-73
2021/07/11 13:18:56;;;;;;;9.20;8.30;;;;;;;;;;5015990;28;20471;-73
2021/07/11 13:21:39;;;;;;;9.18;8.32;;;;;;;;;;5006039;28;20122;-73
2021/07/11 13:24:16;;;;;;;9.23;7.90;;;;;;;;;;5015088;28;20049;-73
2021/07/11 13:26:54;;;;;;;9.30;8.40;;;;;;;;;;5010597;28;20125;-72
2021/07/11 13:29:33;;;;;;;9.40;8.45;;;;;;;;;;5013900;28;20052;-73
2021/07/11 13:32:06;;;;;;;9.27;8.02;;;;;;;;;;5014294;28;20148;-73
2021/07/11 13:34:33;;;;;;;10.27;8.50;;;;;;;;;;5016733;28;20148;-72
2021/07/11 13:36:59;;;;;;;8.30;7.50;;;;;;;;;;5013623;28;20494;-72
2021/07/11 13:39:26;;;;;;;8.85;7.95;;;;;;;;;;5021752;28;20034;-72
2021/07/11 13:41:52;;;;;;;7.55;6.72;;;;;;;;;;5010796;28;20030;-72
2021/07/11 13:44:18;;;;;;;8.45;7.18;;;;;;;;;;5020391;28;20076;-72
2021/07/11 13:46:44;;;;;;;8.73;7.85;;;;;;;;;;5012150;28;20049;-72
2021/07/11 13:49:10;;;;;;;8.43;7.63;;;;;;;;;;5023283;28;20056;-73
2021/07/11 13:51:36;;;;;;;7.43;6.72;;;;;;;;;;5009227;28;20033;-72
2021/07/11 13:54:02;;;;;;;8.70;7.95;;;;;;;;;;5019138;28;20042;-72
2021/07/11 13:56:29;;;;;;;7.13;6.53;;;;;;;;;;5017078;28;20038;-72
2021/07/11 13:58:55;;;;;;;7.28;6.57;;;;;;;;;;5017877;28;20081;-72
2021/07/11 14:01:21;;;;;;;7.75;7.05;;;;;;;;;;5012392;28;20040;-72
2021/07/11 14:03:47;;;;;;;7.38;6.68;;;;;;;;;;5035082;28;20052;-72
2021/07/11 14:06:13;;;;;;;9.50;7.28;;;;;;;;;;5033814;28;20040;-72
2021/07/11 14:08:39;;;;;;;6.07;5.50;;;;;;;;;;5020528;28;20053;-71
2021/07/11 14:11:06;;;;;;;7.03;6.30;;;;;;;;;;5035893;28;20041;-72
2021/07/11 14:13:32;;;;;;;6.95;6.35;;;;;;;;;;5034436;28;20417;-73
2021/07/11 14:15:58;;;;;;;7.75;7.05;;;;;;;;;;5044906;28;20822;-72
2021/07/11 14:18:24;;;;;;;7.00;6.30;;;;;;;;;;5036372;28;20041;-72
2021/07/11 14:20:50;;;;;;;7.80;7.15;;;;;;;;;;5040382;28;20048;-72
2021/07/11 14:23:17;;;;;;;7.00;6.40;;;;;;;;;;5035271;28;20045;-72
2021/07/11 14:25:43;;;;;;;8.20;7.07;;;;;;;;;;5039136;28;20072;-72
2021/07/11 14:28:10;;;;;;;7.28;6.57;;;;;;;;;;5032205;28;20454;-72
2021/07/11 14:30:37;;;;;;;8.88;7.05;;;;;;;;;;5037701;28;20033;-72
2021/07/11 14:33:03;;;;;;;7.15;6.43;;;;;;;;;;5028339;28;20045;-73